Time;durP1;ratioP1;P1;durP2;ratioP2;P2;SDS_P1;SDS_P2;PMS_P1;PMS_P2;Temp;Humidity;BMP_temperature;BMP_pressure;BME280_temperature;BME280_humidity;BME280_pressure;Samples;Min_cycle;Max_cycle;Signal;HPM_P1;HPM_P2
2023/06/10 00:01:24;;;;;;;13.48;12.48;;;18.70;99.90;;;;;;4992107;28;20805;-67
2023/06/10 00:03:51;;;;;;;14.13;12.95;;;18.70;99.90;;;;;;4992328;28;20161;-66
2023/06/10 00:06:17;;;;;;;13.07;11.97;;;18.70;99.90;;;;;;4992307;28;20169;-67
2023/06/10 00:08:43;;;;;;;12.00;11.03;;;18.70;99.90;;;;;;4991547;28;20275;-66
2023/06/10 00:11:08;;;;;;;16.20;15.07;;;18.70;99.90;;;;;;4992192;28;20518;-67
2023/06/10 00:13:35;;;;;;;21.53;19.83;;;18.70;99.90;;;;;;4991838;28;20216;-67
2023/06/10 00:16:01;;;;;;;12.90;11.70;;;18.60;99.90;;;;;;4992179;28;20173;-66
2023/06/10 00:18:26;;;;;;;13.70;12.60;;;18.60;99.90;;;;;;4991957;28;20188;-67
2023/06/10 00:20:54;;;;;;;13.47;12.43;;;18.50;99.90;;;;;;4991549;28;20717;-66
2023/06/10 00:23:21;;;;;;;13.90;12.15;;;18.60;99.90;;;;;;4992002;28;20171;-66
2023/06/10 00:25:46;;;;;;;14.20;13.10;;;18.50;99.90;;;;;;4992117;28;20177;-66
2023/06/10 00:28:13;;;;;;;14.43;13.23;;;18.50;99.90;;;;;;4991873;28;20266;-66
2023/06/10 00:30:39;;;;;;;12.63;11.53;;;18.50;99.90;;;;;;4990335;28;20176;-66
2023/06/10 00:33:04;;;;;;;14.00;12.80;;;18.40;99.90;;;;;;4992136;28;20175;-66
2023/06/10 00:35:30;;;;;;;12.00;10.90;;;18.40;99.90;;;;;;4991793;28;20189;-66
2023/06/10 00:37:56;;;;;;;11.90;10.90;;;18.40;99.90;;;;;;4991744;28;20542;-67
2023/06/10 00:40:21;;;;;;;11.97;10.80;;;18.30;99.90;;;;;;4991508;28;20207;-66
2023/06/10 00:42:47;;;;;;;14.03;12.93;;;18.30;99.90;;;;;;4991926;28;20177;-67
2023/06/10 00:45:12;;;;;;;13.40;12.17;;;18.30;99.90;;;;;;4992005;28;20172;-66
2023/06/10 00:47:39;;;;;;;12.27;11.07;;;18.30;99.90;;;;;;4990365;28;20199;-66
2023/06/10 00:50:06;;;;;;;12.13;11.07;;;18.20;99.90;;;;;;4991223;28;20193;-66
2023/06/10 00:52:33;;;;;;;12.40;11.50;;;18.20;99.90;;;;;;4991699;28;20196;-67
2023/06/10 00:54:59;;;;;;;11.70;10.80;;;18.20;99.90;;;;;;4991806;28;20180;-67
2023/06/10 00:57:26;;;;;;;12.70;11.50;;;18.20;99.90;;;;;;4991662;28;20200;-66
2023/06/10 00:59:52;;;;;;;13.03;11.93;;;18.10;99.90;;;;;;4991701;28;20207;-66
2023/06/10 01:02:17;;;;;;;13.07;11.87;;;18.00;99.90;;;;;;4991481;28;20185;-67
2023/06/10 01:04:43;;;;;;;13.15;12.05;;;18.00;99.90;;;;;;4991731;28;20527;-66
2023/06/10 01:07:22;;;;;;;13.23;12.13;;;18.00;99.90;;;;;;4991795;28;20173;-67
2023/06/10 01:10:03;;;;;;;13.23;12.03;;;18.00;99.90;;;;;;4991512;28;20518;-66
2023/06/10 01:12:51;;;;;;;13.07;11.97;;;18.00;99.90;;;;;;4991316;28;20259;-67
2023/06/10 01:15:18;;;;;;;11.57;10.50;;;18.00;99.90;;;;;;4990293;28;20693;-66
2023/06/10 01:18:03;;;;;;;12.53;11.43;;;17.90;99.90;;;;;;4991507;28;20224;-66
2023/06/10 01:20:31;;;;;;;12.50;11.47;;;17.90;99.90;;;;;;4993481;28;20725;-66
2023/06/10 01:23:02;;;;;;;13.33;12.20;;;17.80;99.90;;;;;;4995347;28;20177;-66
2023/06/10 01:25:32;;;;;;;11.83;10.77;;;17.80;99.90;;;;;;4995415;28;20534;-66
2023/06/10 01:28:10;;;;;;;12.47;11.37;;;17.70;99.90;;;;;;4995559;28;20263;-66
2023/06/10 01:31:00;;;;;;;12.73;11.53;;;17.70;99.90;;;;;;4994827;28;20183;-67
2023/06/10 01:33:30;;;;;;;13.50;11.50;;;17.70;99.90;;;;;;4994942;28;20185;-66
2023/06/10 01:36:01;;;;;;;12.70;11.60;;;17.70;99.90;;;;;;4995049;28;20177;-66
2023/06/10 01:38:30;;;;;;;13.90;12.63;;;17.60;99.90;;;;;;4995187;28;20601;-67
2023/06/10 01:40:57;;;;;;;12.93;11.80;;;17.60;99.90;;;;;;4994621;28;20205;-67
2023/06/10 01:43:23;;;;;;;14.00;12.80;;;17.60;99.90;;;;;;4994971;28;20213;-66
2023/06/10 01:45:49;;;;;;;14.20;13.00;;;17.50;99.90;;;;;;4994570;28;20575;-66
2023/06/10 01:48:14;;;;;;;14.57;13.30;;;17.50;99.90;;;;;;4994688;28;20184;-67
2023/06/10 01:50:40;;;;;;;13.20;12.10;;;17.40;99.90;;;;;;4994391;28;20654;-66
2023/06/10 01:53:05;;;;;;;16.97;13.53;;;17.40;99.90;;;;;;4994831;28;20176;-66
2023/06/10 01:55:31;;;;;;;13.13;11.93;;;17.30;99.90;;;;;;4994701;28;20177;-67
2023/06/10 01:57:57;;;;;;;13.13;11.83;;;17.20;99.90;;;;;;4994589;28;20232;-66
2023/06/10 02:00:22;;;;;;;12.30;11.10;;;17.20;99.90;;;;;;4993702;28;20212;-66
2023/06/10 02:02:48;;;;;;;12.80;11.80;;;17.20;99.90;;;;;;4994587;28;20173;-66
2023/06/10 02:05:14;;;;;;;12.23;11.13;;;17.20;99.90;;;;;;4994550;28;20236;-66
2023/06/10 02:07:39;;;;;;;13.07;11.77;;;17.10;99.90;;;;;;4994321;28;20292;-67
2023/06/10 02:10:07;;;;;;;12.73;11.53;;;17.10;99.90;;;;;;4994116;28;20180;-66
2023/06/10 02:12:32;;;;;;;12.23;11.17;;;17.10;99.90;;;;;;4994252;28;20180;-66
2023/06/10 02:14:58;;;;;;;12.77;11.57;;;17.10;99.90;;;;;;4992958;28;20643;-66
2023/06/10 02:17:23;;;;;;;12.93;11.73;;;17.10;99.90;;;;;;4994131;28;20283;-67
2023/06/10 02:19:52;;;;;;;14.10;12.90;;;17.00;99.90;;;;;;4993980;28;20180;-66
2023/06/10 02:22:24;;;;;;;13.20;11.87;;;17.00;99.90;;;;;;4994127;28;20179;-66
2023/06/10 02:24:50;;;;;;;13.57;12.23;;;17.00;99.90;;;;;;4994362;28;20201;-67
2023/06/10 02:27:16;;;;;;;12.67;11.60;;;16.90;99.90;;;;;;4993996;28;20212;-67
2023/06/10 02:29:43;;;;;;;14.20;12.90;;;16.90;99.90;;;;;;4994366;28;20579;-69
2023/06/10 02:32:09;;;;;;;13.83;12.63;;;16.90;99.90;;;;;;4993445;28;20226;-70
2023/06/10 02:34:36;;;;;;;12.40;11.20;;;16.90;99.90;;;;;;4994903;28;20177;-71
2023/06/10 02:37:02;;;;;;;13.23;11.83;;;16.90;99.90;;;;;;4995293;28;20269;-70
2023/06/10 02:39:28;;;;;;;13.80;12.50;;;16.80;99.90;;;;;;4994571;28;20181;-72
2023/06/10 02:41:54;;;;;;;12.77;11.67;;;16.80;99.90;;;;;;4994627;28;20242;-71
2023/06/10 02:44:20;;;;;;;13.87;12.40;;;16.80;99.90;;;;;;4994727;28;20200;-70
2023/06/10 02:46:45;;;;;;;12.50;11.40;;;16.70;99.90;;;;;;4994752;28;20191;-69
2023/06/10 02:49:11;;;;;;;13.60;12.27;;;16.70;99.90;;;;;;4994819;28;20203;-72
2023/06/10 02:51:37;;;;;;;13.37;12.07;;;16.70;99.90;;;;;;4994800;28;20181;-70
2023/06/10 02:54:03;;;;;;;12.90;11.67;;;16.60;99.90;;;;;;4994312;28;20235;-70
2023/06/10 02:56:29;;;;;;;13.80;12.57;;;16.60;99.90;;;;;;4994669;28;20263;-72
2023/06/10 02:58:55;;;;;;;14.17;12.83;;;16.60;99.90;;;;;;4993013;28;20200;-71
2023/06/10 03:01:21;;;;;;;14.07;12.80;;;16.50;99.90;;;;;;4994390;28;20216;-71
2023/06/10 03:03:46;;;;;;;14.53;12.70;;;16.40;99.90;;;;;;4995266;28;20394;-72
2023/06/10 03:06:13;;;;;;;13.90;12.63;;;16.40;99.90;;;;;;4994594;28;20264;-73
2023/06/10 03:08:40;;;;;;;13.43;12.03;;;16.40;99.90;;;;;;4994657;28;20188;-72
2023/06/10 03:11:06;;;;;;;14.77;13.47;;;16.30;99.90;;;;;;4993287;28;20177;-71
2023/06/10 03:13:32;;;;;;;13.43;12.13;;;16.40;99.90;;;;;;4993210;28;20271;-72
2023/06/10 03:15:58;;;;;;;13.73;12.43;;;16.40;99.90;;;;;;4994726;28;20176;-70
2023/06/10 03:18:27;;;;;;;13.70;12.40;;;16.30;99.90;;;;;;4994694;28;20255;-73
2023/06/10 03:20:54;;;;;;;15.37;13.67;;;16.30;99.90;;;;;;4993427;28;20236;-73
2023/06/10 03:23:20;;;;;;;14.53;13.07;;;16.30;99.90;;;;;;4994277;28;20165;-72
2023/06/10 03:25:47;;;;;;;14.10;12.60;;;16.20;99.90;;;;;;4994599;28;20191;-73
2023/06/10 03:28:12;;;;;;;13.43;12.20;;;16.20;99.90;;;;;;4994355;28;20208;-72
2023/06/10 03:30:38;;;;;;;14.40;13.00;;;16.20;99.90;;;;;;4993338;28;20180;-72
2023/06/10 03:33:04;;;;;;;16.93;13.23;;;16.20;99.90;;;;;;4994262;28;20184;-70
2023/06/10 03:35:29;;;;;;;14.70;13.20;;;16.20;99.90;;;;;;4994043;28;20623;-72
2023/06/10 03:37:55;;;;;;;16.13;14.33;;;16.10;99.90;;;;;;4994051;28;20685;-73
2023/06/10 03:40:21;;;;;;;15.80;14.23;;;16.10;99.90;;;;;;4992427;28;20706;-72
2023/06/10 03:42:47;;;;;;;15.00;13.63;;;16.10;99.90;;;;;;4994077;28;20244;-73
2023/06/10 03:45:12;;;;;;;14.93;13.47;;;16.10;99.90;;;;;;4993543;28;20200;-72
2023/06/10 03:47:40;;;;;;;13.43;12.13;;;16.10;99.90;;;;;;4994016;28;20193;-71
2023/06/10 03:50:07;;;;;;;13.80;12.37;;;16.10;99.90;;;;;;4991800;28;20191;-69
2023/06/10 03:52:34;;;;;;;14.13;12.73;;;16.20;99.90;;;;;;4993679;28;20177;-72
2023/06/10 03:55:00;;;;;;;14.27;12.97;;;16.30;99.90;;;;;;4993514;28;20231;-70
2023/06/10 03:57:25;;;;;;;13.73;12.53;;;16.40;99.90;;;;;;4993000;28;20192;-66
2023/06/10 03:59:51;;;;;;;14.23;13.13;;;16.50;99.90;;;;;;4991875;28;20183;-67
2023/06/10 04:02:17;;;;;;;14.17;12.87;;;16.50;99.90;;;;;;4992271;28;20176;-66
2023/06/10 04:04:43;;;;;;;13.77;12.67;;;16.50;99.90;;;;;;4991072;28;20180;-66
2023/06/10 04:07:08;;;;;;;13.67;12.47;;;16.50;99.90;;;;;;4992215;28;20527;-66
2023/06/10 04:09:35;;;;;;;13.43;12.23;;;16.60;99.90;;;;;;4991989;28;20172;-66
2023/06/10 04:12:01;;;;;;;13.03;11.93;;;16.70;99.90;;;;;;4992216;28;20694;-66
2023/06/10 04:14:27;;;;;;;13.10;12.03;;;16.70;99.90;;;;;;4990504;28;20271;-67
2023/06/10 04:16:53;;;;;;;13.63;12.57;;;16.70;99.90;;;;;;4992492;28;20676;-66
2023/06/10 04:19:18;;;;;;;15.33;14.17;;;16.80;99.90;;;;;;4991764;28;20197;-66
2023/06/10 04:21:44;;;;;;;14.60;13.30;;;16.90;99.90;;;;;;4992162;28;20208;-66
2023/06/10 04:24:09;;;;;;;13.07;11.77;;;17.10;99.90;;;;;;4991990;28;20653;-66
2023/06/10 04:26:36;;;;;;;13.60;12.40;;;17.10;99.90;;;;;;4991941;28;20165;-66
2023/06/10 04:29:02;;;;;;;13.87;12.57;;;17.30;99.90;;;;;;4990581;28;20204;-66
2023/06/10 04:31:28;;;;;;;14.97;13.53;;;17.40;99.90;;;;;;4991582;28;20183;-66
2023/06/10 04:33:54;;;;;;;14.33;13.23;;;17.50;99.90;;;;;;4992234;28;20172;-66
2023/06/10 04:36:20;;;;;;;13.87;12.67;;;17.80;99.90;;;;;;4992251;28;20173;-67
2023/06/10 04:38:46;;;;;;;16.23;14.77;;;18.00;99.90;;;;;;4991858;28;20189;-67
2023/06/10 04:41:12;;;;;;;16.07;14.80;;;18.30;99.90;;;;;;4991549;28;20284;-67
2023/06/10 04:43:38;;;;;;;16.93;15.73;;;18.60;99.90;;;;;;4991473;28;20735;-67
2023/06/10 04:46:04;;;;;;;17.70;11.70;;;19.00;99.90;;;;;;4991843;28;20161;-67
2023/06/10 04:48:29;;;;;;;12.75;11.52;;;19.20;99.90;;;;;;4991708;28;20195;-66
2023/06/10 04:50:56;;;;;;;12.07;10.98;;;19.40;99.90;;;;;;4991640;28;20177;-66
2023/06/10 04:53:22;;;;;;;12.25;11.07;;;19.60;99.90;;;;;;4991396;28;20181;-67
2023/06/10 04:55:48;;;;;;;11.95;10.90;;;19.90;99.90;;;;;;4994523;28;20184;-66
2023/06/10 04:58:14;;;;;;;15.77;14.35;;;20.20;99.90;;;;;;4995583;28;20197;-67
2023/06/10 05:00:40;;;;;;;14.77;13.63;;;20.50;99.90;;;;;;4995117;28;20591;-67
2023/06/10 05:03:05;;;;;;;18.55;17.15;;;20.90;99.90;;;;;;4995713;28;20184;-67
2023/06/10 05:05:31;;;;;;;21.25;19.67;;;21.30;99.90;;;;;;4995620;28;20173;-67
2023/06/10 05:07:57;;;;;;;13.18;12.07;;;21.60;99.90;;;;;;4995620;28;20271;-67
2023/06/10 05:10:22;;;;;;;12.63;10.40;;;22.00;99.90;;;;;;4994983;28;20667;-67
2023/06/10 05:12:48;;;;;;;13.02;11.82;;;22.20;99.90;;;;;;4995484;28;20486;-67
2023/06/10 05:15:13;;;;;;;10.38;9.45;;;22.40;99.90;;;;;;4995578;28;20232;-67
2023/06/10 05:17:39;;;;;;;10.32;9.27;;;22.60;99.90;;;;;;4995222;28;20572;-67
2023/06/10 05:20:06;;;;;;;10.25;9.35;;;22.60;99.90;;;;;;4994984;28;20204;-67
2023/06/10 05:22:31;;;;;;;9.95;8.95;;;22.60;99.90;;;;;;4995294;28;20223;-67
2023/06/10 05:24:57;;;;;;;10.80;9.75;;;22.50;99.90;;;;;;4995080;28;20185;-67
2023/06/10 05:27:22;;;;;;;11.57;10.48;;;22.30;99.90;;;;;;4993490;28;20208;-67
2023/06/10 05:29:48;;;;;;;13.75;11.00;;;22.30;99.90;;;;;;4994889;28;20195;-67
2023/06/10 05:32:14;;;;;;;10.75;9.75;;;22.20;99.90;;;;;;4995050;28;20177;-67
2023/06/10 05:34:39;;;;;;;12.23;10.77;;;22.20;99.90;;;;;;4995133;28;20542;-67
2023/06/10 05:37:05;;;;;;;11.35;10.35;;;22.30;99.90;;;;;;4995056;28;20515;-67
2023/06/10 05:39:31;;;;;;;11.50;10.52;;;22.50;99.90;;;;;;4994609;28;20181;-67
2023/06/10 05:41:58;;;;;;;11.13;9.57;;;22.70;99.90;;;;;;4994649;28;20211;-67
2023/06/10 05:44:24;;;;;;;11.05;8.63;;;23.00;99.90;;;;;;4994853;28;20169;-67
2023/06/10 05:46:50;;;;;;;9.90;8.57;;;23.30;99.90;;;;;;4994953;28;20177;-67
2023/06/10 05:49:16;;;;;;;10.60;9.00;;;23.70;99.90;;;;;;4994809;28;20193;-67
2023/06/10 05:51:41;;;;;;;9.98;9.07;;;24.10;99.90;;;;;;4994530;28;20169;-67
2023/06/10 05:54:07;;;;;;;10.95;9.85;;;24.60;99.90;;;;;;4994671;28;20212;-67
2023/06/10 05:56:33;;;;;;;9.82;8.98;;;24.90;99.90;;;;;;4994330;28;20185;-67
2023/06/10 05:58:58;;;;;;;9.43;8.07;;;25.30;99.90;;;;;;4994670;28;20205;-67
2023/06/10 06:01:24;;;;;;;10.38;9.48;;;25.50;99.90;;;;;;4992760;28;20220;-67
2023/06/10 06:03:50;;;;;;;9.85;8.88;;;25.80;99.90;;;;;;4994413;28;20191;-67
2023/06/10 06:06:16;;;;;;;9.63;8.52;;;26.00;99.90;;;;;;4993114;28;20180;-67
2023/06/10 06:08:41;;;;;;;9.90;9.20;;;26.10;99.90;;;;;;4993071;28;20275;-67
2023/06/10 06:11:07;;;;;;;9.25;8.55;;;26.40;99.90;;;;;;4993714;28;20588;-67
2023/06/10 06:13:33;;;;;;;9.32;8.43;;;26.70;99.90;;;;;;4994064;28;20243;-67
2023/06/10 06:15:58;;;;;;;8.20;7.40;;;27.00;99.90;;;;;;4994389;28;20169;-67
2023/06/10 06:18:24;;;;;;;9.23;8.32;;;27.40;99.90;;;;;;4994120;28;20263;-67
2023/06/10 06:20:50;;;;;;;7.63;7.03;;;27.70;99.90;;;;;;4993036;28;20212;-67
2023/06/10 06:23:15;;;;;;;9.43;7.95;;;28.00;99.90;;;;;;4994087;28;20224;-67
2023/06/10 06:25:41;;;;;;;8.23;7.50;;;28.10;99.90;;;;;;4994118;28;20172;-67
2023/06/10 06:28:08;;;;;;;9.13;8.23;;;28.50;99.90;;;;;;4993983;28;20220;-67
2023/06/10 06:30:34;;;;;;;9.48;8.57;;;28.80;99.90;;;;;;4993768;28;20176;-67
2023/06/10 06:33:00;;;;;;;10.18;6.93;;;29.10;99.90;;;;;;4994220;28;20235;-67
2023/06/10 06:35:26;;;;;;;8.65;7.90;;;29.30;99.90;;;;;;4993620;28;20188;-67
2023/06/10 06:37:51;;;;;;;10.40;9.40;;;29.70;99.90;;;;;;4993983;28;20744;-67
2023/06/10 06:40:17;;;;;;;11.98;10.98;;;30.10;99.90;;;;;;4993422;28;20804;-68
2023/06/10 06:42:43;;;;;;;12.43;11.43;;;30.50;99.90;;;;;;4993793;28;20196;-67
2023/06/10 06:45:09;;;;;;;11.80;10.90;;;30.40;99.90;;;;;;4993817;28;20169;-67
2023/06/10 06:47:34;;;;;;;12.75;11.75;;;30.60;99.90;;;;;;4992484;28;20280;-67
2023/06/10 06:50:00;;;;;;;9.55;8.77;;;30.80;99.90;;;;;;4993324;28;20698;-67
2023/06/10 06:52:26;;;;;;;8.70;7.95;;;30.90;99.90;;;;;;4993487;28;20199;-67
2023/06/10 06:54:51;;;;;;;9.07;8.23;;;30.90;99.90;;;;;;4993428;28;20199;-67
2023/06/10 06:57:17;;;;;;;8.77;7.97;;;31.10;99.90;;;;;;4993693;28;20289;-68
2023/06/10 06:59:43;;;;;;;8.45;7.68;;;31.20;99.90;;;;;;4992884;28;20216;-68
2023/06/10 07:02:08;;;;;;;7.95;7.35;;;31.30;99.90;;;;;;4992670;28;20217;-67
2023/06/10 07:04:34;;;;;;;8.45;7.40;;;31.40;99.90;;;;;;4993341;28;20608;-67
2023/06/10 07:07:00;;;;;;;7.65;6.95;;;31.30;99.90;;;;;;4993669;28;20168;-67
2023/06/10 07:09:25;;;;;;;7.78;7.10;;;31.30;99.90;;;;;;4993010;28;20661;-67
2023/06/10 07:11:51;;;;;;;8.05;7.25;;;31.20;99.90;;;;;;4993310;28;20259;-67
2023/06/10 07:14:17;;;;;;;7.22;6.55;;;31.10;99.90;;;;;;4993119;28;20188;-68
2023/06/10 07:16:45;;;;;;;8.65;7.75;;;30.90;99.90;;;;;;4993271;28;20177;-67
2023/06/10 07:19:10;;;;;;;7.10;6.50;;;30.50;99.90;;;;;;4992844;28;20193;-67
2023/06/10 07:21:36;;;;;;;7.15;6.55;;;30.60;99.90;;;;;;4992970;28;20215;-67
2023/06/10 07:24:03;;;;;;;7.93;7.32;;;30.50;99.90;;;;;;4993264;28;20262;-67
2023/06/10 07:26:29;;;;;;;7.93;7.25;;;30.70;99.90;;;;;;4992782;28;20173;-67
2023/06/10 07:28:54;;;;;;;7.25;6.65;;;30.80;99.90;;;;;;4993521;28;20235;-67
2023/06/10 07:31:20;;;;;;;8.25;7.63;;;30.70;99.90;;;;;;4992969;28;20352;-67
2023/06/10 07:33:46;;;;;;;7.20;6.60;;;30.70;99.90;;;;;;4992371;28;20211;-67
2023/06/10 07:36:12;;;;;;;7.65;7.03;;;30.80;99.90;;;;;;4991192;28;20579;-67
2023/06/10 07:38:38;;;;;;;9.15;6.35;;;31.20;99.90;;;;;;4992297;28;20258;-67
2023/06/10 07:41:03;;;;;;;8.80;6.63;;;31.60;99.90;;;;;;4992448;28;20209;-67
2023/06/10 07:43:29;;;;;;;6.80;6.20;;;31.70;99.90;;;;;;4992617;28;20255;-67
2023/06/10 07:45:55;;;;;;;9.98;7.35;;;31.70;99.90;;;;;;4991055;28;20272;-67
2023/06/10 07:48:20;;;;;;;7.53;6.82;;;31.80;99.90;;;;;;4992138;28;20200;-67
2023/06/10 07:50:46;;;;;;;6.55;5.95;;;31.70;99.90;;;;;;4990864;28;20269;-67
2023/06/10 07:53:11;;;;;;;6.45;5.95;;;31.80;99.90;;;;;;4992399;28;20245;-67
2023/06/10 07:55:37;;;;;;;7.63;6.35;;;32.00;99.90;;;;;;4991755;28;20193;-67
2023/06/10 07:58:03;;;;;;;6.38;5.78;;;32.00;99.90;;;;;;4992396;28;20204;-67
2023/06/10 08:00:28;;;;;;;7.22;6.30;;;32.00;99.90;;;;;;4991302;28;20204;-67
2023/06/10 08:02:54;;;;;;;6.82;6.13;;;32.00;99.90;;;;;;4991973;28;20177;-67
2023/06/10 08:05:20;;;;;;;7.00;6.30;;;32.40;99.90;;;;;;4992369;28;20643;-67
2023/06/10 08:07:46;;;;;;;7.65;5.78;;;32.60;99.90;;;;;;4992289;28;20661;-67
2023/06/10 08:10:11;;;;;;;8.57;5.95;;;32.70;99.90;;;;;;4973401;28;20174;-67
2023/06/10 08:12:37;;;;;;;6.53;5.93;;;32.90;99.90;;;;;;4972969;28;20196;-67
2023/06/10 08:15:03;;;;;;;6.40;5.80;;;33.20;99.50;;;;;;4972975;28;20189;-67
2023/06/10 08:17:30;;;;;;;7.28;6.45;;;33.30;99.80;;;;;;4972716;28;20268;-67
2023/06/10 08:19:55;;;;;;;6.40;5.90;;;33.70;99.90;;;;;;4972489;28;20590;-67
2023/06/10 08:22:21;;;;;;;6.70;5.60;;;34.00;99.90;;;;;;4987732;28;20181;-68
2023/06/10 08:24:47;;;;;;;6.47;5.75;;;34.10;99.90;;;;;;4992039;28;20196;-67
2023/06/10 08:27:13;;;;;;;6.50;5.90;;;34.50;99.00;;;;;;4992033;28;20625;-67
2023/06/10 08:29:39;;;;;;;6.47;5.85;;;34.90;99.40;;;;;;4991184;28;20195;-67
2023/06/10 08:32:05;;;;;;;6.47;5.88;;;35.20;98.10;;;;;;4992135;28;20219;-67
2023/06/10 08:34:34;;;;;;;6.40;5.38;;;35.30;97.00;;;;;;4990221;28;20195;-67
2023/06/10 08:36:59;;;;;;;6.57;5.90;;;35.20;99.20;;;;;;4991589;28;20177;-67
2023/06/10 08:39:25;;;;;;;9.07;6.03;;;35.20;96.80;;;;;;4991465;28;20514;-68
2023/06/10 08:42:18;;;;;;;6.80;6.20;;;35.10;96.30;;;;;;4991526;28;20207;-68
2023/06/10 08:44:46;;;;;;;7.55;6.03;;;35.20;97.40;;;;;;4991346;28;20173;-67
2023/06/10 08:47:16;;;;;;;6.47;5.88;;;35.10;99.20;;;;;;4991490;28;20662;-67
2023/06/10 08:49:45;;;;;;;6.68;6.07;;;35.30;96.10;;;;;;4991321;28;20226;-68
2023/06/10 08:52:21;;;;;;;7.35;6.07;;;35.50;97.40;;;;;;4991670;28;20184;-68
2023/06/10 08:54:53;;;;;;;7.13;6.53;;;35.60;98.10;;;;;;4991700;28;20199;-67
2023/06/10 08:57:21;;;;;;;6.78;6.28;;;35.40;96.10;;;;;;4991187;28;20643;-67
2023/06/10 08:59:47;;;;;;;7.32;6.40;;;35.20;97.50;;;;;;4991357;28;20256;-67
2023/06/10 09:02:14;;;;;;;8.35;6.78;;;35.50;97.70;;;;;;4991340;28;20705;-67
2023/06/10 09:04:43;;;;;;;6.38;5.75;;;35.70;94.80;;;;;;4991715;28;20181;-68
2023/06/10 09:07:09;;;;;;;7.25;5.97;;;36.00;95.20;;;;;;4991729;28;20168;-68
2023/06/10 09:09:35;;;;;;;7.97;5.85;;;36.00;93.10;;;;;;4991416;28;20643;-67
2023/06/10 09:12:00;;;;;;;7.40;5.78;;;36.20;94.20;;;;;;4991729;28;20259;-68
2023/06/10 09:14:26;;;;;;;7.50;6.18;;;36.00;94.40;;;;;;4991538;28;20652;-68
2023/06/10 09:16:56;;;;;;;7.63;6.00;;;36.00;93.30;;;;;;4991782;28;20216;-68
2023/06/10 09:19:24;;;;;;;6.80;5.97;;;36.00;93.30;;;;;;4991075;28;20196;-68
2023/06/10 09:21:49;;;;;;;6.85;6.15;;;36.40;93.30;;;;;;4991229;28;20196;-67
2023/06/10 09:24:15;;;;;;;7.13;6.00;;;36.50;92.00;;;;;;4991567;28;20243;-67
2023/06/10 09:26:42;;;;;;;7.90;6.43;;;36.30;91.20;;;;;;4990798;28;20180;-67
2023/06/10 09:29:09;;;;;;;7.25;6.55;;;36.10;92.20;;;;;;4991210;28;20252;-68
2023/06/10 09:31:36;;;;;;;6.93;6.32;;;36.00;91.80;;;;;;4991339;28;20169;-68
2023/06/10 09:34:24;;;;;;;7.05;6.35;;;36.20;92.20;;;;;;4991522;28;20196;-68
2023/06/10 09:36:50;;;;;;;6.90;6.30;;;36.10;90.60;;;;;;4991567;28;20208;-68
2023/06/10 09:39:17;;;;;;;6.70;5.47;;;36.00;92.50;;;;;;4989819;28;20611;-68
2023/06/10 09:41:44;;;;;;;7.15;6.45;;;36.20;92.40;;;;;;4993547;28;20267;-68
2023/06/10 09:44:15;;;;;;;6.63;5.72;;;36.60;94.10;;;;;;4995031;28;20169;-68
2023/06/10 09:46:41;;;;;;;9.95;6.35;;;36.80;91.00;;;;;;4994576;28;20200;-68
2023/06/10 09:49:07;;;;;;;6.85;5.97;;;36.80;90.40;;;;;;4994819;28;20247;-67
2023/06/10 09:51:32;;;;;;;6.38;5.78;;;36.40;91.10;;;;;;4994806;28;20177;-68
2023/06/10 09:53:59;;;;;;;7.05;5.60;;;36.00;91.40;;;;;;4994791;28;20181;-67
2023/06/10 09:56:37;;;;;;;6.53;5.40;;;35.90;91.10;;;;;;4994444;28;20173;-67
2023/06/10 09:59:04;;;;;;;6.75;6.15;;;35.80;91.80;;;;;;4994795;28;20197;-67
2023/06/10 10:01:30;;;;;;;6.57;5.78;;;36.00;91.70;;;;;;4989843;28;20296;-68
2023/06/10 10:03:56;;;;;;;6.40;5.47;;;36.30;91.30;;;;;;4975220;28;20174;-67
2023/06/10 10:06:22;;;;;;;6.88;6.28;;;36.60;90.50;;;;;;4974996;28;20201;-68
2023/06/10 10:08:49;;;;;;;6.80;6.20;;;36.60;91.00;;;;;;4975033;28;20263;-67
2023/06/10 10:11:21;;;;;;;8.05;5.97;;;36.60;86.60;;;;;;4975026;28;20170;-67
2023/06/10 10:13:49;;;;;;;6.07;5.47;;;36.50;91.40;;;;;;4975031;28;20181;-67
2023/06/10 10:16:21;;;;;;;9.45;6.35;;;36.40;88.30;;;;;;4993907;28;20185;-67
2023/06/10 10:18:54;;;;;;;6.22;5.63;;;36.50;87.70;;;;;;4994505;28;20192;-68
2023/06/10 10:21:25;;;;;;;8.10;6.32;;;36.80;90.80;;;;;;4993285;28;20207;-67
2023/06/10 10:24:16;;;;;;;8.43;7.30;;;37.10;90.30;;;;;;4979145;28;20264;-68
2023/06/10 10:26:42;;;;;;;7.95;6.63;;;37.20;88.80;;;;;;4994192;28;20553;-67
2023/06/10 10:29:23;;;;;;;6.40;5.80;;;37.30;88.40;;;;;;4993891;28;20204;-68
2023/06/10 10:31:53;;;;;;;10.00;6.72;;;37.30;87.60;;;;;;4993755;28;20635;-68
2023/06/10 10:34:25;;;;;;;6.85;6.10;;;37.20;88.10;;;;;;4994114;28;20181;-67
2023/06/10 10:36:51;;;;;;;7.10;6.53;;;37.60;85.20;;;;;;4994043;28;20179;-68
2023/06/10 10:39:18;;;;;;;7.80;7.10;;;38.10;84.70;;;;;;4993580;28;20212;-68
2023/06/10 10:41:44;;;;;;;6.78;6.15;;;38.40;86.70;;;;;;4993443;28;20270;-68
2023/06/10 10:44:11;;;;;;;6.68;6.07;;;38.50;87.80;;;;;;4994102;28;20165;-67
2023/06/10 10:46:50;;;;;;;6.15;5.55;;;38.70;82.20;;;;;;4993608;28;20670;-68
2023/06/10 10:49:17;;;;;;;7.68;6.63;;;39.20;83.20;;;;;;4993627;28;20200;-67
2023/06/10 10:52:02;;;;;;;7.63;5.72;;;39.80;82.70;;;;;;4993607;28;20187;-68
2023/06/10 10:54:40;;;;;;;6.72;6.13;;;40.10;85.00;;;;;;4993135;28;20177;-68
2023/06/10 10:57:19;;;;;;;6.03;5.43;;;40.30;73.80;;;;;;4992533;28;20176;-68
2023/06/10 11:00:04;;;;;;;6.63;6.00;;;40.40;76.50;;;;;;4993321;28;20525;-67
2023/06/10 11:02:46;;;;;;;6.40;5.90;;;40.10;74.20;;;;;;4993380;28;20293;-67
2023/06/10 11:05:15;;;;;;;7.82;6.97;;;40.30;74.40;;;;;;4992332;28;20192;-68
2023/06/10 11:07:51;;;;;;;6.95;6.22;;;40.60;70.70;;;;;;4993415;28;20232;-68
2023/06/10 11:10:16;;;;;;;7.28;6.40;;;40.00;73.80;;;;;;4992967;28;20543;-67
2023/06/10 11:12:50;;;;;;;6.93;6.10;;;39.40;74.10;;;;;;4993240;28;20176;-68
2023/06/10 11:15:23;;;;;;;8.75;6.28;;;38.90;78.00;;;;;;4993493;28;20717;-68
2023/06/10 11:18:12;;;;;;;6.90;6.28;;;38.80;77.50;;;;;;4993334;28;20216;-68
2023/06/10 11:20:50;;;;;;;8.25;7.65;;;38.20;71.60;;;;;;4973331;28;20607;-68
2023/06/10 11:23:27;;;;;;;7.90;7.22;;;37.30;70.40;;;;;;4973804;28;20169;-67
2023/06/10 11:26:11;;;;;;;8.18;7.57;;;36.60;75.10;;;;;;4973851;28;20169;-67
2023/06/10 11:28:38;;;;;;;8.27;7.47;;;35.80;78.60;;;;;;4973306;28;20300;-68
2023/06/10 11:31:04;;;;;;;7.72;7.10;;;35.30;79.00;;;;;;4973563;28;20193;-67
2023/06/10 11:33:30;;;;;;;7.50;6.80;;;35.20;80.10;;;;;;4981867;28;20181;-67
2023/06/10 11:35:56;;;;;;;7.75;6.80;;;35.50;80.20;;;;;;4993042;28;20181;-67
2023/06/10 11:38:22;;;;;;;7.45;6.75;;;36.10;80.00;;;;;;4992134;28;20196;-67
2023/06/10 11:40:49;;;;;;;7.30;6.70;;;36.60;75.80;;;;;;4990904;28;20220;-67
2023/06/10 11:43:17;;;;;;;8.55;6.55;;;36.90;79.20;;;;;;4992953;28;20291;-68
2023/06/10 11:45:43;;;;;;;7.82;7.05;;;36.70;78.60;;;;;;4992343;28;20169;-67
2023/06/10 11:48:10;;;;;;;8.38;7.68;;;36.50;79.50;;;;;;4992542;28;20681;-67
2023/06/10 11:50:36;;;;;;;8.68;7.97;;;36.10;82.80;;;;;;4991972;28;20191;-67
2023/06/10 11:53:03;;;;;;;8.45;7.78;;;35.60;76.80;;;;;;4992724;28;20177;-67
2023/06/10 11:55:42;;;;;;;7.10;6.50;;;35.10;74.30;;;;;;4991352;28;20176;-67
2023/06/10 11:58:18;;;;;;;7.43;6.78;;;34.60;79.20;;;;;;4992396;28;20283;-67
2023/06/10 12:00:49;;;;;;;8.50;7.50;;;34.40;76.30;;;;;;4991879;28;20295;-67
2023/06/10 12:03:15;;;;;;;7.75;7.18;;;34.20;79.50;;;;;;4992435;28;20630;-67
2023/06/10 12:05:54;;;;;;;8.32;6.75;;;34.10;81.70;;;;;;4991369;28;20187;-67
2023/06/10 12:08:19;;;;;;;8.10;7.13;;;33.80;84.40;;;;;;4992198;28;20216;-67
2023/06/10 12:10:45;;;;;;;7.28;6.68;;;33.80;83.00;;;;;;4990337;28;20223;-67
2023/06/10 12:13:11;;;;;;;7.97;7.32;;;33.80;83.90;;;;;;4992148;28;20544;-67
2023/06/10 12:15:37;;;;;;;8.20;7.50;;;33.60;77.90;;;;;;4992278;28;20168;-67
2023/06/10 12:18:03;;;;;;;9.15;8.35;;;33.40;87.50;;;;;;4992206;28;20689;-67
2023/06/10 12:20:32;;;;;;;8.50;7.70;;;33.30;84.20;;;;;;4991898;28;20199;-67
2023/06/10 12:22:58;;;;;;;6.82;6.30;;;33.30;82.80;;;;;;4991874;28;20209;-67
2023/06/10 12:25:28;;;;;;;7.53;6.82;;;33.40;86.90;;;;;;4992122;28;20209;-68
2023/06/10 12:27:56;;;;;;;7.97;7.28;;;33.60;85.70;;;;;;4990615;28;20677;-67
2023/06/10 12:30:24;;;;;;;6.97;6.38;;;34.00;84.70;;;;;;4991898;28;20172;-67
2023/06/10 12:32:50;;;;;;;7.45;6.63;;;34.60;83.70;;;;;;4991939;28;20697;-67
2023/06/10 12:35:20;;;;;;;6.93;6.20;;;35.30;84.30;;;;;;4991980;28;20189;-67
2023/06/10 12:38:00;;;;;;;6.00;5.50;;;36.10;81.30;;;;;;4991814;28;20200;-68
2023/06/10 12:40:28;;;;;;;7.05;6.43;;;36.80;81.40;;;;;;4989956;28;20330;-67